Time;durP1;ratioP1;P1;durP2;ratioP2;P2;SDS_P1;SDS_P2;PMS_P1;PMS_P2;Temp;Humidity;BMP_temperature;BMP_pressure;BME280_temperature;BME280_humidity;BME280_pressure;Samples;Min_cycle;Max_cycle;Signal;HPM_P1;HPM_P2
2022/01/16 00:00:24;;;;;;;;;57.20;45.80;;;;;5.68;57.23;102059.72;2080473;28;48637;-68
2022/01/16 00:04:56;;;;;;;;;64.80;52.20;;;;;5.65;56.79;102060.56;2083600;28;47783;-65
2022/01/16 00:05:57;;;;;;;;;61.50;48.25;;;;;5.65;56.96;102064.94;2085400;28;47367;-67
2022/01/16 00:07:02;;;;;;;;;56.75;47.75;;;;;5.64;57.02;102064.06;2088736;28;47229;-67
2022/01/16 00:08:02;;;;;;;;;59.20;47.60;;;;;5.65;56.69;102052.66;2087202;28;48445;-67
2022/01/16 00:09:05;;;;;;;;;55.75;46.00;;;;;5.66;56.88;102058.81;2079446;28;46778;-67
2022/01/16 00:10:06;;;;;;;;;57.00;48.00;;;;;5.65;56.94;102046.50;2075206;28;47622;-65
2022/01/16 00:11:07;;;;;;;;;58.00;48.80;;;;;5.66;56.98;102037.75;2088171;28;46958;-66
2022/01/16 00:12:10;;;;;;;;;62.00;48.00;;;;;5.65;56.73;102047.38;2087242;28;45390;-64
2022/01/16 00:13:11;;;;;;;;;59.00;46.00;;;;;5.65;56.69;102035.97;2094067;28;48081;-66
2022/01/16 00:14:12;;;;;;;;;58.00;46.25;;;;;5.65;56.61;102036.84;2088238;28;47707;-65
2022/01/16 00:15:12;;;;;;;;;63.20;49.20;;;;;5.63;56.20;102042.94;2083337;28;47649;-67
2022/01/16 00:16:15;;;;;;;;;55.50;46.25;;;;;5.63;56.64;102049.09;2087788;28;47263;-67
2022/01/16 00:17:16;;;;;;;;;50.60;42.60;;;;;5.64;57.01;102052.63;2094795;28;47297;-65
2022/01/16 00:18:23;;;;;;;;;58.50;47.00;;;;;5.63;56.59;102053.50;2092902;28;47208;-66
2022/01/16 00:19:23;;;;;;;;;57.20;46.40;;;;;5.64;56.98;102066.69;2094932;28;47566;-66
2022/01/16 00:20:25;;;;;;;;;58.25;47.25;;;;;5.63;56.92;102059.66;2093466;28;46834;-66
2022/01/16 00:21:30;;;;;;;;;55.40;45.40;;;;;5.64;57.08;102056.16;2093563;28;46008;-62
2022/01/16 00:22:36;;;;;;;;;59.40;48.00;;;;;5.64;56.50;102050.88;2093396;28;46238;-65
2022/01/16 00:23:37;;;;;;;;;58.40;46.40;;;;;5.64;56.59;102042.09;2089803;28;48382;-66
2022/01/16 00:24:37;;;;;;;;;59.00;47.75;;;;;5.64;56.92;102050.88;2090636;28;47231;-68
2022/01/16 00:25:38;;;;;;;;;56.25;45.75;;;;;5.64;57.11;102045.63;2089784;28;46884;-67
2022/01/16 00:26:39;;;;;;;;;62.00;48.75;;;;;5.64;56.94;102053.50;2088451;28;47824;-67
2022/01/16 00:27:39;;;;;;;;;59.20;46.80;;;;;5.66;57.10;102061.44;2088779;28;48250;-67
2022/01/16 00:28:40;;;;;;;;;53.25;41.25;;;;;5.67;56.98;102063.22;2091328;28;46977;-68
2022/01/16 00:29:40;;;;;;;;;59.00;46.50;;;;;5.67;56.89;102065.84;2091778;28;47113;-66
2022/01/16 00:30:40;;;;;;;;;60.25;48.25;;;;;5.68;56.74;102073.78;2085582;28;47473;-66
2022/01/16 00:31:42;;;;;;;;;56.50;46.00;;;;;5.68;57.06;102080.78;2078275;28;46578;-66
2022/01/16 00:32:42;;;;;;;;;59.80;47.20;;;;;5.68;57.07;102086.94;2094520;28;47118;-66
2022/01/16 00:33:44;;;;;;;;;54.00;46.00;;;;;5.68;56.62;102099.22;2093231;28;47831;-65
2022/01/16 00:34:45;;;;;;;;;62.60;49.60;;;;;5.69;56.77;102090.47;2091057;28;47903;-65
2022/01/16 00:35:45;;;;;;;;;57.00;45.50;;;;;5.68;56.87;102086.94;2091656;28;47316;-67
2022/01/16 00:36:46;;;;;;;;;58.25;47.75;;;;;5.70;56.85;102093.13;2094740;28;47524;-67
2022/01/16 00:37:48;;;;;;;;;57.75;46.25;;;;;5.69;56.64;102090.47;2093616;28;47180;-63
2022/01/16 00:38:50;;;;;;;;;59.20;48.40;;;;;5.69;56.31;102086.09;2094130;28;46906;-66
2022/01/16 00:39:51;;;;;;;;;60.80;48.20;;;;;5.67;56.75;102077.28;2093565;28;47501;-64
2022/01/16 00:40:51;;;;;;;;;63.00;49.50;;;;;5.67;56.40;102057.94;2094692;28;46684;-66
2022/01/16 00:41:51;;;;;;;;;59.25;48.00;;;;;5.67;56.66;102050.94;2094198;28;46483;-67
2022/01/16 00:42:55;;;;;;;;;60.00;47.50;;;;;5.65;56.56;102035.97;2095621;28;47007;-66
2022/01/16 00:43:55;;;;;;;;;60.20;48.80;;;;;5.65;56.42;102043.88;2095242;28;47260;-65
2022/01/16 00:44:55;;;;;;;;;61.50;50.50;;;;;5.64;56.58;102050.88;2095702;28;47791;-66
2022/01/16 00:45:56;;;;;;;;;55.75;45.50;;;;;5.63;56.68;102057.00;2094786;28;47321;-65
2022/01/16 00:46:56;;;;;;;;;59.25;49.50;;;;;5.62;56.63;102065.78;2091256;28;47137;-66
2022/01/16 00:47:57;;;;;;;;;57.00;47.00;;;;;5.63;56.96;102054.38;2095004;28;47641;-64
2022/01/16 00:48:57;;;;;;;;;53.25;45.00;;;;;5.64;56.84;102057.91;2095752;28;47526;-67
2022/01/16 00:49:58;;;;;;;;;60.00;47.50;;;;;5.63;56.78;102062.28;2095062;28;47515;-66
2022/01/16 00:50:59;;;;;;;;;58.50;45.75;;;;;5.62;56.94;102071.03;2095871;28;47650;-66
2022/01/16 00:51:59;;;;;;;;;61.00;49.50;;;;;5.63;56.22;102074.56;2094309;28;47245;-67
2022/01/16 00:53:00;;;;;;;;;56.00;47.50;;;;;5.60;56.55;102073.66;2094897;28;47561;-67
2022/01/16 00:54:01;;;;;;;;;56.00;46.00;;;;;5.60;56.17;102071.00;2094633;28;47344;-66
2022/01/16 00:55:03;;;;;;;;;57.00;47.25;;;;;5.57;56.58;102070.91;2081769;28;46764;-69
2022/01/16 00:56:04;;;;;;;;;57.20;47.80;;;;;5.55;56.14;102077.91;2079744;28;47891;-66
2022/01/16 00:57:05;;;;;;;;;59.25;48.00;;;;;5.55;56.18;102087.56;2095211;28;47672;-66
2022/01/16 00:58:05;;;;;;;;;63.60;48.60;;;;;5.52;56.16;102077.84;2094313;28;46552;-67
2022/01/16 00:59:06;;;;;;;;;63.25;47.75;;;;;5.51;56.13;102062.91;2091744;28;47238;-67
2022/01/16 01:00:07;;;;;;;;;60.00;49.00;;;;;5.51;56.27;102072.56;2092143;28;48014;-66
2022/01/16 01:01:08;;;;;;;;;55.20;46.40;;;;;5.49;56.27;102093.59;2093744;28;46918;-66
2022/01/16 01:02:09;;;;;;;;;55.60;42.60;;;;;5.49;56.57;102121.66;2091225;28;47547;-68
2022/01/16 01:03:11;;;;;;;;;58.00;48.00;;;;;5.48;56.33;102139.22;2095782;28;47191;-66
2022/01/16 01:04:11;;;;;;;;;62.20;49.40;;;;;5.49;56.79;102126.94;2094528;28;45539;-67
2022/01/16 01:05:12;;;;;;;;;57.50;46.25;;;;;5.50;56.39;102115.53;2095212;28;47174;-67
2022/01/16 01:06:13;;;;;;;;;66.50;53.25;;;;;5.50;56.66;102115.53;2093466;28;47624;-67
2022/01/16 01:07:13;;;;;;;;;54.25;45.25;;;;;5.49;56.13;102127.81;2094744;28;46808;-68
2022/01/16 01:08:14;;;;;;;;;53.50;42.50;;;;;5.50;56.44;102131.34;2093407;28;47376;-67
2022/01/16 01:09:15;;;;;;;;;59.25;48.50;;;;;5.48;56.29;102126.03;2089703;28;47459;-67
2022/01/16 01:10:16;;;;;;;;;59.50;48.50;;;;;5.48;56.39;102106.72;2089328;28;47523;-67
2022/01/16 01:11:19;;;;;;;;;56.75;44.00;;;;;5.45;56.50;102118.06;2093872;28;47014;-68
2022/01/16 01:12:34;;;;;;;;;58.20;46.00;;;;;5.44;56.22;102132.06;2092988;28;47934;-67
2022/01/16 01:13:54;;;;;;;;;56.60;46.20;;;;;5.43;56.16;102150.47;2092526;28;48379;-66
2022/01/16 01:15:30;;;;;;;;;55.80;46.20;;;;;5.43;56.30;102132.03;2086715;28;47478;-67
2022/01/16 01:16:22;;;;;;;;;54.00;44.60;;;;;5.42;56.18;102102.19;2090212;28;46827;-65
2022/01/16 01:17:24;;;;;;;;;55.00;45.60;;;;;5.42;56.29;102111.84;2089820;28;47156;-66
2022/01/16 01:18:26;;;;;;;;;58.40;47.20;;;;;5.41;56.15;102125.88;2090584;28;47175;-66
2022/01/16 01:19:34;;;;;;;;;51.60;43.00;;;;;5.41;56.00;102131.13;2080870;28;47896;-66
2022/01/16 01:20:36;;;;;;;;;60.00;46.40;;;;;5.39;56.51;102128.47;2085941;28;47579;-67
2022/01/16 01:21:36;;;;;;;;;60.00;47.80;;;;;5.36;56.08;102096.81;2094746;28;47799;-67
2022/01/16 01:22:36;;;;;;;;;51.00;41.25;;;;;5.37;56.61;102088.06;2092728;28;47333;-67
2022/01/16 01:23:37;;;;;;;;;48.75;42.25;;;;;5.37;56.42;102068.75;2087461;28;47143;-66
2022/01/16 01:24:37;;;;;;;;;56.50;44.25;;;;;5.37;56.49;102050.31;2094179;28;47603;-65
2022/01/16 01:25:38;;;;;;;;;54.25;46.00;;;;;5.36;56.31;102045.91;2092939;28;47474;-65
2022/01/16 01:26:49;;;;;;;;;51.20;43.20;;;;;5.35;56.12;102031.00;2094603;28;47954;-67
2022/01/16 01:27:50;;;;;;;;;55.40;46.00;;;;;5.35;56.51;102031.00;2092954;28;47457;-67
2022/01/16 01:28:51;;;;;;;;;55.75;45.00;;;;;5.35;56.58;102031.00;2094081;28;47291;-66
2022/01/16 01:30:03;;;;;;;;;53.50;45.00;;;;;5.35;56.25;102031.88;2085207;28;47284;-68
2022/01/16 01:31:03;;;;;;;;;56.20;46.20;;;;;5.34;56.43;102014.31;2079199;28;47251;-67
2022/01/16 01:32:05;;;;;;;;;55.50;47.00;;;;;5.35;56.24;102009.94;2084863;28;45402;-68
2022/01/16 01:33:06;;;;;;;;;53.40;44.20;;;;;5.35;56.41;102013.44;2093952;28;47693;-68
2022/01/16 01:34:07;;;;;;;;;58.50;46.75;;;;;5.35;56.81;102016.06;2089789;28;46482;-67
2022/01/16 01:35:11;;;;;;;;;60.80;47.00;;;;;5.34;56.41;102013.41;2093660;28;47370;-66
2022/01/16 01:36:11;;;;;;;;;55.60;47.20;;;;;5.35;56.16;102031.88;2093887;28;47289;-68
2022/01/16 01:37:11;;;;;;;;;55.25;44.25;;;;;5.35;56.63;102052.03;2095214;28;47174;-66
2022/01/16 01:38:17;;;;;;;;;61.50;46.75;;;;;5.35;56.13;102055.56;2093345;28;47449;-67
2022/01/16 01:39:20;;;;;;;;;51.80;42.40;;;;;5.35;56.39;102062.56;2088457;28;46307;-69
2022/01/16 01:40:24;;;;;;;;;59.80;49.80;;;;;5.35;56.23;102071.34;2093265;28;46113;-67
2022/01/16 01:41:26;;;;;;;;;59.20;47.40;;;;;5.35;56.39;102075.72;2094599;28;47176;-67
2022/01/16 01:42:41;;;;;;;;;62.40;49.00;;;;;5.35;55.98;102083.63;2094318;28;47709;-66
2022/01/16 01:51:31;;;;;;;;;61.00;50.20;;;;;5.35;57.03;102117.84;2091995;28;48030;-61
2022/01/16 01:52:31;;;;;;;;;64.00;51.40;;;;;5.36;56.97;102117.00;2086806;28;47422;-66
2022/01/16 01:53:32;;;;;;;;;58.50;46.50;;;;;5.37;56.32;102129.28;2097575;28;47163;-67
2022/01/16 01:54:33;;;;;;;;;62.80;50.80;;;;;5.37;56.39;102135.44;2089141;28;47816;-67
2022/01/16 01:55:34;;;;;;;;;57.50;46.75;;;;;5.36;56.40;102128.41;2091233;28;47294;-63
2022/01/16 01:56:37;;;;;;;;;59.25;46.75;;;;;5.35;56.43;102126.63;2093689;28;46096;-67
2022/01/16 01:57:37;;;;;;;;;55.80;45.40;;;;;5.35;56.89;102115.22;2095301;28;47566;-66
2022/01/16 01:58:38;;;;;;;;;57.00;46.25;;;;;5.34;56.35;102124.84;2095490;28;46764;-67
2022/01/16 01:59:39;;;;;;;;;58.00;45.75;;;;;5.35;56.57;102125.75;2094306;28;47804;-66
2022/01/16 02:00:41;;;;;;;;;56.00;44.00;;;;;5.33;56.84;102133.59;2098763;28;47715;-66
2022/01/16 02:01:42;;;;;;;;;58.60;47.20;;;;;5.33;56.27;102144.09;2087976;28;47617;-66
2022/01/16 02:03:35;;;;;;;;;52.25;43.00;;;;;5.33;56.33;102152.00;2095228;28;47220;-68
2022/01/16 02:04:10;;;;;;;;;56.60;48.00;;;;;5.33;56.59;102165.16;2086814;28;47357;-67
2022/01/16 02:05:11;;;;;;;;;59.00;49.00;;;;;5.34;57.06;102163.47;2101088;28;47618;-68
2022/01/16 02:06:25;;;;;;;;;56.50;46.75;;;;;5.34;56.75;102166.09;2097037;28;47793;-66
2022/01/16 02:07:25;;;;;;;;;61.40;48.80;;;;;5.35;57.08;102160.84;2089270;28;47714;-66
2022/01/16 02:08:26;;;;;;;;;52.75;42.25;;;;;5.35;56.77;102165.22;2094115;28;46068;-67
2022/01/16 02:09:26;;;;;;;;;62.25;49.00;;;;;5.36;57.21;102169.63;2094807;28;47509;-66
2022/01/16 02:10:27;;;;;;;;;56.00;46.50;;;;;5.37;56.89;102174.03;2093900;28;46057;-67
2022/01/16 02:11:30;;;;;;;;;59.75;48.75;;;;;5.37;56.88;102169.66;2097233;28;46759;-67
2022/01/16 02:12:32;;;;;;;;;57.60;45.00;;;;;5.36;57.24;102173.16;2094381;28;48150;-67
2022/01/16 02:13:45;;;;;;;;;50.80;39.80;;;;;5.36;57.09;102178.44;2101620;28;47934;-68
2022/01/16 02:14:59;;;;;;;;;60.20;46.40;;;;;5.37;57.07;102172.31;2087773;28;47784;-66
2022/01/16 02:28:09;;;;;;;;;56.00;45.20;;;;;5.32;57.15;102187.97;2093132;28;47842;-67
2022/01/16 02:31:28;;;;;;;;;55.00;45.80;;;;;5.34;57.27;102171.34;2096351;28;47792;-65
2022/01/16 02:34:48;;;;;;;;;55.80;45.60;;;;;5.32;57.23;102161.66;2092638;28;47509;-66
2022/01/16 02:35:52;;;;;;;;;54.75;44.75;;;;;5.32;57.65;102161.66;2092843;28;47620;-66
2022/01/16 02:36:56;;;;;;;;;59.60;47.20;;;;;5.34;57.44;102163.47;2083446;28;47442;-67
2022/01/16 02:37:57;;;;;;;;;54.20;45.20;;;;;5.34;57.82;102160.81;2084684;28;47471;-66
2022/01/16 02:39:10;;;;;;;;;54.50;43.50;;;;;5.35;57.13;102165.22;2096656;28;47825;-66
2022/01/16 02:40:18;;;;;;;;;54.40;46.60;;;;;5.34;57.34;102159.06;2092593;28;47214;-66
2022/01/16 02:41:19;;;;;;;;;61.20;49.60;;;;;5.34;57.75;102163.47;2092891;28;47966;-66
2022/01/16 02:42:25;;;;;;;;;57.00;48.00;;;;;5.34;57.25;102155.56;2095197;28;46900;-66
2022/01/16 02:43:32;;;;;;;;;58.40;46.40;;;;;5.35;57.82;102158.22;2104243;28;47543;-68
2022/01/16 02:44:46;;;;;;;;;60.00;49.60;;;;;5.35;57.67;102152.97;2094962;28;46781;-67
2022/01/16 02:45:57;;;;;;;;;59.20;46.60;;;;;5.35;57.82;102144.19;2094616;28;46798;-66
2022/01/16 02:46:59;;;;;;;;;58.80;48.40;;;;;5.35;57.73;102142.44;2090239;28;47288;-67
2022/01/16 02:48:06;;;;;;;;;61.00;51.00;;;;;5.36;57.49;102143.31;2094002;28;47274;-66
2022/01/16 02:49:21;;;;;;;;;52.60;43.00;;;;;5.34;57.80;102135.38;2087712;28;47469;-66
2022/01/16 02:50:22;;;;;;;;;60.60;50.00;;;;;5.36;57.46;102135.41;2087570;28;47534;-67
2022/01/16 02:51:25;;;;;;;;;58.75;48.00;;;;;5.36;57.50;102138.06;2088490;28;46356;-67
2022/01/16 02:52:25;;;;;;;;;65.20;50.00;;;;;5.36;57.47;102138.94;2093742;28;47815;-66
2022/01/16 02:53:25;;;;;;;;;62.25;50.25;;;;;5.37;57.46;102130.19;2104837;28;47096;-66
2022/01/16 02:54:27;;;;;;;;;57.00;46.75;;;;;5.39;57.97;102141.63;2095914;28;47169;-66
2022/01/16 02:55:28;;;;;;;;;57.40;47.60;;;;;5.39;57.81;102141.63;2096037;28;47140;-65
2022/01/16 02:56:28;;;;;;;;;55.50;45.50;;;;;5.39;57.42;102130.22;2091344;28;45240;-66
2022/01/16 02:57:29;;;;;;;;;36.50;31.00;;;;;5.41;57.43;102133.75;2095077;28;47409;-64
2022/01/16 02:58:30;;;;;;;;;59.20;49.40;;;;;5.40;57.87;102130.25;2093310;28;47466;-66
2022/01/16 02:59:31;;;;;;;;;59.25;48.50;;;;;5.41;57.28;102125.88;2091503;28;45695;-62
2022/01/16 03:00:31;;;;;;;;;58.75;47.75;;;;;5.41;57.86;102131.13;2095029;28;47516;-66
2022/01/16 03:01:31;;;;;;;;;59.50;48.75;;;;;5.41;57.48;102128.50;2098775;28;47361;-66
2022/01/16 03:02:32;;;;;;;;;59.00;48.75;;;;;5.42;57.84;102119.75;2096039;28;47079;-67
2022/01/16 03:03:32;;;;;;;;;59.50;46.00;;;;;5.40;57.51;102117.09;2095624;28;47306;-66
2022/01/16 03:04:34;;;;;;;;;59.50;48.25;;;;;5.42;57.91;102114.47;2094584;28;47504;-66
2022/01/16 03:05:35;;;;;;;;;58.00;47.60;;;;;5.42;57.65;102119.75;2095721;28;47202;-67
2022/01/16 03:06:35;;;;;;;;;60.80;48.80;;;;;5.43;58.02;102116.25;2094657;28;47629;-67
2022/01/16 03:07:36;;;;;;;;;60.50;48.50;;;;;5.43;57.41;102121.53;2095414;28;47819;-67
2022/01/16 03:08:37;;;;;;;;;57.00;46.40;;;;;5.45;57.59;102119.81;2093281;28;47392;-67
2022/01/16 03:11:34;;;;;;;;;50.00;42.20;;;;;5.46;57.57;102108.41;2085027;28;47713;-66
2022/01/16 03:12:34;;;;;;;;;63.60;52.80;;;;;5.48;57.90;102104.97;2076531;28;47100;-67
2022/01/16 03:13:39;;;;;;;;;64.75;49.00;;;;;5.49;58.04;102116.41;2077039;28;47800;-70
2022/01/16 03:14:40;;;;;;;;;63.60;51.60;;;;;5.49;57.55;102113.78;2077464;28;48324;-67
2022/01/16 03:15:40;;;;;;;;;55.25;46.00;;;;;5.49;58.01;102105.88;2077499;28;46698;-67
2022/01/16 03:16:46;;;;;;;;;56.75;47.50;;;;;5.49;57.62;102109.38;2076687;28;47461;-66
2022/01/16 03:22:50;;;;;;;;;61.40;50.60;;;;;5.50;57.41;102100.63;2096708;28;48126;-67
2022/01/16 03:23:51;;;;;;;;;60.75;47.25;;;;;5.52;57.53;102100.66;2100578;28;47250;-67
2022/01/16 03:24:51;;;;;;;;;62.50;48.50;;;;;5.51;57.49;102099.78;2097770;28;47568;-65
2022/01/16 03:25:53;;;;;;;;;59.25;49.00;;;;;5.52;57.99;102100.66;2091246;28;47434;-66
2022/01/16 03:26:59;;;;;;;;;63.20;51.80;;;;;5.52;57.96;102103.28;2095499;28;47730;-68
2022/01/16 03:28:00;;;;;;;;;60.40;48.20;;;;;5.53;57.63;102105.06;2095923;28;47752;-66
2022/01/16 03:29:00;;;;;;;;;57.25;47.25;;;;;5.53;57.45;102105.06;2092146;28;47281;-67
2022/01/16 03:30:00;;;;;;;;;62.50;50.50;;;;;5.52;57.58;102104.19;2094843;28;47660;-69
2022/01/16 03:31:01;;;;;;;;;59.00;46.00;;;;;5.52;58.06;102101.56;2092735;28;47370;-66
2022/01/16 03:32:04;;;;;;;;;62.25;49.75;;;;;5.53;57.94;102110.34;2094707;28;47559;-66
2022/01/16 03:33:05;;;;;;;;;61.80;49.40;;;;;5.53;57.47;102113.84;2094961;28;47720;-67
2022/01/16 03:34:05;;;;;;;;;60.75;49.50;;;;;5.54;57.44;102109.47;2094928;28;47501;-66
2022/01/16 03:35:06;;;;;;;;;62.25;47.50;;;;;5.53;58.00;102116.50;2095108;28;47659;-65
2022/01/16 03:36:06;;;;;;;;;60.25;49.25;;;;;5.55;57.80;102119.16;2095272;28;47685;-69
2022/01/16 03:37:08;;;;;;;;;60.25;48.50;;;;;5.53;57.85;102112.97;2098460;27;47529;-66
2022/01/16 03:38:08;;;;;;;;;61.20;48.60;;;;;5.53;58.09;102116.50;2097113;28;47576;-65
2022/01/16 03:39:09;;;;;;;;;65.25;50.75;;;;;5.53;58.31;102115.59;2095792;28;46967;-66
2022/01/16 03:40:11;;;;;;;;;59.50;49.75;;;;;5.53;57.99;102115.59;2086114;28;47980;-67
2022/01/16 03:41:11;;;;;;;;;65.80;50.40;;;;;5.53;58.12;102118.22;2087327;28;47515;-67
2022/01/16 03:42:12;;;;;;;;;61.00;47.75;;;;;5.53;58.17;102120.88;2096778;28;46767;-67
2022/01/16 03:43:14;;;;;;;;;63.00;49.75;;;;;5.54;57.99;102127.91;2096381;28;47291;-66
2022/01/16 03:44:16;;;;;;;;;50.60;42.40;;;;;5.54;57.81;102136.69;2094391;28;45840;-65
2022/01/16 03:45:17;;;;;;;;;60.00;48.00;;;;;5.54;57.79;102135.81;2087401;28;47999;-66
2022/01/16 03:46:18;;;;;;;;;60.25;49.25;;;;;5.54;57.92;102134.06;2084744;28;47268;-66
2022/01/16 03:47:18;;;;;;;;;62.00;51.25;;;;;5.56;58.01;102134.09;2099716;28;47529;-66
2022/01/16 03:48:18;;;;;;;;;62.25;47.25;;;;;5.56;57.67;102131.47;2093655;28;47178;-67
2022/01/16 03:49:22;;;;;;;;;51.25;42.75;;;;;5.57;57.83;102122.69;2091992;28;46953;-65
2022/01/16 03:50:22;;;;;;;;;56.80;46.60;;;;;5.58;57.94;102127.09;2092206;28;47461;-68
2022/01/16 03:51:23;;;;;;;;;54.00;43.25;;;;;5.57;57.99;102109.53;2096224;28;47226;-67
2022/01/16 03:52:23;;;;;;;;;60.50;47.00;;;;;5.57;58.02;102115.69;2094238;28;47839;-65
2022/01/16 03:53:24;;;;;;;;;56.75;45.25;;;;;5.56;57.69;102113.91;2094251;28;47866;-65
2022/01/16 03:54:28;;;;;;;;;57.25;47.25;;;;;5.57;57.99;102113.06;2090960;28;47402;-66
2022/01/16 03:55:28;;;;;;;;;58.20;47.40;;;;;5.58;57.76;102113.94;2088805;28;47787;-67
2022/01/16 03:56:29;;;;;;;;;57.75;46.25;;;;;5.58;57.65;102109.56;2094098;28;47656;-65
2022/01/16 03:57:30;;;;;;;;;55.60;45.00;;;;;5.57;57.93;102107.78;2095075;28;47549;-64
2022/01/16 03:58:30;;;;;;;;;68.25;52.25;;;;;5.58;57.44;102104.28;2093437;28;47245;-66
2022/01/16 03:59:31;;;;;;;;;54.50;47.00;;;;;5.59;57.47;102115.75;2090101;28;47188;-66
2022/01/16 04:00:31;;;;;;;;;60.00;48.75;;;;;5.59;57.68;102113.13;2097793;28;47610;-67
2022/01/16 04:01:33;;;;;;;;;61.25;44.75;;;;;5.59;58.04;102119.28;2094386;28;46899;-66
2022/01/16 04:02:34;;;;;;;;;56.80;46.40;;;;;5.59;57.70;102111.38;2095853;28;46814;-67
2022/01/16 04:03:34;;;;;;;;;53.75;45.25;;;;;5.60;57.72;102112.25;2090222;28;47359;-65
2022/01/16 04:04:35;;;;;;;;;49.00;43.25;;;;;5.59;57.45;102113.13;2096891;28;47295;-66
2022/01/16 04:05:35;;;;;;;;;56.00;44.25;;;;;5.58;57.57;102117.47;2090599;28;47679;-65
2022/01/16 04:06:35;;;;;;;;;60.25;49.00;;;;;5.59;57.47;102127.16;2086685;28;47135;-67
2022/01/16 04:07:36;;;;;;;;;55.75;44.50;;;;;5.60;57.71;102126.31;2085486;28;47557;-67
2022/01/16 04:08:36;;;;;;;;;61.25;50.75;;;;;5.57;57.89;102118.31;2095866;28;46241;-68
2022/01/16 04:09:37;;;;;;;;;63.00;50.25;;;;;5.57;57.34;102120.94;2094978;28;47163;-65
2022/01/16 04:10:38;;;;;;;;;61.80;49.20;;;;;5.58;57.34;102124.47;2095892;28;47167;-66
2022/01/16 04:11:45;;;;;;;;;56.25;45.50;;;;;5.58;57.35;102127.09;2095275;28;47397;-65
2022/01/16 04:12:46;;;;;;;;;60.60;47.40;;;;;5.55;57.27;102122.66;2095854;28;48410;-64
2022/01/16 04:13:52;;;;;;;;;63.20;50.40;;;;;5.55;57.98;102127.94;2098903;28;47385;-66
2022/01/16 04:15:53;;;;;;;;;63.00;47.75;;;;;5.55;57.30;102129.69;2094049;28;46096;-65
2022/01/16 04:16:54;;;;;;;;;63.50;47.25;;;;;5.55;57.49;102137.59;2090459;28;47798;-66
2022/01/16 04:17:54;;;;;;;;;52.75;44.75;;;;;5.55;57.33;102137.59;2094873;28;47590;-66
2022/01/16 04:18:54;;;;;;;;;58.75;48.25;;;;;5.55;57.38;102143.72;2089912;28;47544;-67
2022/01/16 04:19:55;;;;;;;;;57.50;48.25;;;;;5.54;57.59;102141.97;2092584;28;47245;-66
2022/01/16 04:20:57;;;;;;;;;66.00;51.00;;;;;5.54;57.37;102143.72;2095509;28;47475;-65
2022/01/16 04:21:57;;;;;;;;;61.80;50.60;;;;;5.54;57.77;102143.72;2094685;28;48072;-65
2022/01/16 04:22:58;;;;;;;;;61.50;48.00;;;;;5.53;57.53;102148.09;2091201;28;47236;-66
2022/01/16 04:23:58;;;;;;;;;62.50;49.75;;;;;5.52;57.99;102154.22;2094441;28;47352;-67
2022/01/16 04:24:59;;;;;;;;;59.20;46.60;;;;;5.53;57.25;102160.38;2094129;28;47372;-66
2022/01/16 04:25:59;;;;;;;;;61.75;49.50;;;;;5.52;57.62;102161.22;2094754;28;47225;-66
2022/01/16 04:27:00;;;;;;;;;59.25;48.00;;;;;5.51;57.85;102169.97;2091783;28;47718;-65
2022/01/16 04:28:01;;;;;;;;;59.00;48.50;;;;;5.50;57.78;102171.72;2092720;28;47793;-66
2022/01/16 04:29:01;;;;;;;;;57.00;45.25;;;;;5.51;57.57;102178.75;2094647;28;47309;-66
2022/01/16 04:30:03;;;;;;;;;60.25;49.00;;;;;5.51;57.50;102165.59;2093913;28;47798;-67
2022/01/16 04:31:03;;;;;;;;;57.00;46.00;;;;;5.51;57.50;102160.34;2086973;28;47437;-67
2022/01/16 04:32:05;;;;;;;;;56.75;43.00;;;;;5.51;57.95;102162.97;2082347;28;47642;-66
2022/01/16 04:33:05;;;;;;;;;55.80;47.00;;;;;5.50;57.29;102165.56;2094448;28;47855;-67
2022/01/16 04:34:05;;;;;;;;;60.25;49.25;;;;;5.50;57.84;102162.94;2094134;28;47705;-66
2022/01/16 04:35:07;;;;;;;;;58.25;48.25;;;;;5.50;57.79;102174.34;2090925;28;47478;-66
2022/01/16 04:36:08;;;;;;;;;59.00;48.20;;;;;5.50;57.83;102182.25;2094420;28;47514;-66
2022/01/16 04:37:09;;;;;;;;;54.80;42.80;;;;;5.50;58.15;102190.16;2090437;28;47258;-66
2022/01/16 04:38:09;;;;;;;;;56.00;47.25;;;;;5.49;57.54;102188.38;2094187;28;47145;-65
2022/01/16 04:39:16;;;;;;;;;58.50;48.25;;;;;5.49;57.63;102188.38;2095598;28;47689;-66
2022/01/16 04:40:17;;;;;;;;;59.60;48.20;;;;;5.50;57.60;102194.53;2095255;28;47753;-65
2022/01/16 04:43:56;;;;;;;;;59.00;47.00;;;;;5.49;57.75;102188.38;2100017;28;47156;-67
2022/01/16 04:44:56;;;;;;;;;59.75;47.75;;;;;5.51;57.97;102191.94;2095330;28;46969;-65
2022/01/16 04:45:57;;;;;;;;;60.75;49.50;;;;;5.51;57.70;102193.69;2094898;28;45647;-66
2022/01/16 04:46:58;;;;;;;;;63.25;49.25;;;;;5.50;57.73;102192.78;2088094;28;47606;-66
2022/01/16 04:47:58;;;;;;;;;56.50;44.25;;;;;5.50;57.38;102191.91;2090039;28;46938;-68
2022/01/16 04:49:02;;;;;;;;;56.25;45.50;;;;;5.50;57.93;102182.25;2089841;28;46928;-67
2022/01/16 04:50:03;;;;;;;;;58.40;45.60;;;;;5.50;57.98;102174.34;2094494;28;46009;-65
2022/01/16 04:51:03;;;;;;;;;57.80;48.60;;;;;5.51;58.02;102185.78;2086483;28;47257;-66
2022/01/16 04:52:04;;;;;;;;;58.25;46.25;;;;;5.50;57.72;102192.78;2084169;28;47374;-65
2022/01/16 04:53:04;;;;;;;;;63.25;48.75;;;;;5.50;58.06;102186.63;2095090;28;46855;-67
2022/01/16 04:54:05;;;;;;;;;57.00;47.75;;;;;5.49;57.57;102177.84;2091683;28;47315;-67
2022/01/16 04:55:08;;;;;;;;;60.25;48.50;;;;;5.51;57.71;102167.34;2094715;28;47335;-67
2022/01/16 04:56:09;;;;;;;;;59.20;48.20;;;;;5.50;57.63;102166.47;2093423;28;47201;-67
2022/01/16 04:57:13;;;;;;;;;62.00;49.80;;;;;5.50;57.69;102162.94;2091328;28;47604;-66
2022/01/16 04:58:13;;;;;;;;;58.60;47.60;;;;;5.50;57.84;102157.66;2094026;28;47530;-67
2022/01/16 04:59:14;;;;;;;;;64.75;49.25;;;;;5.51;57.72;102162.06;2092486;28;47663;-67
2022/01/16 05:00:16;;;;;;;;;59.50;48.75;;;;;5.51;57.71;102164.72;2093003;28;47201;-67
2022/01/16 05:01:16;;;;;;;;;62.00;46.80;;;;;5.51;57.62;102165.59;2086754;28;47777;-67
2022/01/16 05:02:17;;;;;;;;;58.50;46.00;;;;;5.51;57.67;102172.63;2088467;28;47256;-67
2022/01/16 05:03:17;;;;;;;;;63.75;48.75;;;;;5.51;58.07;102173.50;2095911;28;47845;-67
2022/01/16 05:04:18;;;;;;;;;57.00;46.50;;;;;5.51;57.67;102186.66;2093978;28;47837;-67
2022/01/16 05:05:18;;;;;;;;;53.75;43.75;;;;;5.50;58.25;102184.88;2090927;28;47265;-67
2022/01/16 05:06:19;;;;;;;;;63.75;48.00;;;;;5.52;57.56;102190.19;2094409;28;46816;-66
2022/01/16 05:07:20;;;;;;;;;57.80;46.00;;;;;5.52;57.93;102190.19;2095938;28;46142;-67
2022/01/16 05:08:20;;;;;;;;;61.50;46.00;;;;;5.53;57.93;102190.22;2094699;28;46827;-67
2022/01/16 05:09:21;;;;;;;;;57.50;48.25;;;;;5.53;58.06;102190.22;2096059;28;46924;-67
2022/01/16 05:10:21;;;;;;;;;61.25;51.75;;;;;5.53;57.87;102194.59;2093126;28;47865;-66
2022/01/16 05:11:25;;;;;;;;;64.00;51.75;;;;;5.52;58.12;102196.34;2096157;28;47451;-67
2022/01/16 05:12:32;;;;;;;;;60.60;49.20;;;;;5.53;58.33;102190.22;2092367;28;47095;-67
2022/01/16 05:17:28;;;;;;;;;58.80;47.80;;;;;5.52;57.95;102198.97;2093699;28;47753;-66
2022/01/16 05:18:28;;;;;;;;;60.50;47.00;;;;;5.52;58.26;102206.88;2093527;28;47960;-66
2022/01/16 05:19:28;;;;;;;;;64.00;50.25;;;;;5.53;58.56;102200.75;2095240;28;47779;-65
2022/01/16 05:20:29;;;;;;;;;60.50;46.50;;;;;5.53;58.55;102203.38;2094103;28;47947;-67
2022/01/16 05:21:29;;;;;;;;;63.75;49.50;;;;;5.54;58.15;102201.63;2103689;28;48104;-65
2022/01/16 05:22:30;;;;;;;;;60.75;48.00;;;;;5.53;58.12;102203.38;2093845;28;47330;-66
2022/01/16 05:23:30;;;;;;;;;56.50;45.00;;;;;5.53;58.13;102208.66;2089253;28;46770;-64
2022/01/16 05:24:34;;;;;;;;;58.75;48.25;;;;;5.52;58.44;102204.25;2095304;28;47672;-65
2022/01/16 05:25:34;;;;;;;;;59.40;48.60;;;;;5.52;58.39;102201.59;2090095;28;48248;-65
2022/01/16 05:26:36;;;;;;;;;60.50;48.25;;;;;5.53;58.46;102207.75;2091799;28;47705;-66
2022/01/16 05:27:37;;;;;;;;;58.00;46.40;;;;;5.52;58.12;102206.88;2089034;28;47439;-65